Time;durP1;ratioP1;P1;durP2;ratioP2;P2;SDS_P1;SDS_P2;PMS_P1;PMS_P2;Temp;Humidity;BMP_temperature;BMP_pressure;BME280_temperature;BME280_humidity;BME280_pressure;Samples;Min_cycle;Max_cycle;Signal;HPM_P1;HPM_P2
2021/08/28 00:00:52;;;;;;;6.07;5.10;;;14.10;93.40;;;;;;5026578;28;20101;-71
2021/08/28 00:03:21;;;;;;;8.30;4.88;;;14.00;93.40;;;;;;5032327;28;20025;-70
2021/08/28 00:05:48;;;;;;;6.53;5.05;;;14.00;93.50;;;;;;5030546;28;20037;-70
2021/08/28 00:08:14;;;;;;;6.43;5.03;;;14.00;93.50;;;;;;4999725;28;20482;-71
2021/08/28 00:10:40;;;;;;;7.05;5.28;;;14.00;93.50;;;;;;5032112;28;20037;-71
2021/08/28 00:13:06;;;;;;;5.88;5.20;;;14.00;93.50;;;;;;5031810;28;20359;-70
2021/08/28 00:15:31;;;;;;;6.03;4.70;;;14.00;93.40;;;;;;5031165;28;20026;-71
2021/08/28 00:17:57;;;;;;;5.75;4.43;;;13.90;93.40;;;;;;5031751;28;20034;-71
2021/08/28 00:20:23;;;;;;;6.13;4.40;;;14.00;93.50;;;;;;5032161;28;20040;-71
2021/08/28 00:22:49;;;;;;;6.35;5.13;;;13.90;93.60;;;;;;5027619;28;20025;-71
2021/08/28 00:25:15;;;;;;;5.10;4.60;;;14.00;93.60;;;;;;5011886;28;20044;-70
2021/08/28 00:27:42;;;;;;;6.72;4.90;;;14.00;93.50;;;;;;5031831;28;20033;-71
2021/08/28 00:30:09;;;;;;;6.90;5.05;;;14.00;93.60;;;;;;5030867;28;20022;-71
2021/08/28 00:32:36;;;;;;;7.93;5.72;;;14.00;93.60;;;;;;5028465;28;20029;-70
2021/08/28 00:35:02;;;;;;;7.68;5.20;;;14.00;93.60;;;;;;5030998;28;20023;-71
2021/08/28 00:37:27;;;;;;;7.50;4.80;;;14.00;93.60;;;;;;5031423;28;20072;-72
2021/08/28 00:39:53;;;;;;;6.45;4.75;;;14.00;93.70;;;;;;5030872;28;20664;-70
2021/08/28 00:42:18;;;;;;;7.57;5.10;;;14.10;93.70;;;;;;5031155;28;20367;-71
2021/08/28 00:44:45;;;;;;;6.53;4.80;;;14.10;93.70;;;;;;5030669;28;20057;-70
2021/08/28 00:47:19;;;;;;;6.72;5.20;;;14.10;93.70;;;;;;5031413;28;20072;-71
2021/08/28 00:49:49;;;;;;;6.03;5.13;;;14.10;93.80;;;;;;5028364;28;20029;-71
2021/08/28 00:52:16;;;;;;;8.30;5.93;;;14.10;93.70;;;;;;5030282;28;20497;-70
2021/08/28 00:54:43;;;;;;;6.18;5.35;;;14.10;93.70;;;;;;5030543;28;20030;-71
2021/08/28 00:57:12;;;;;;;5.90;5.30;;;14.10;93.70;;;;;;5030952;28;20108;-71
2021/08/28 00:59:41;;;;;;;8.85;6.75;;;14.20;93.70;;;;;;5025638;28;20033;-71
2021/08/28 01:02:07;;;;;;;8.85;6.22;;;14.20;93.60;;;;;;5030645;28;20048;-71
2021/08/28 01:04:51;;;;;;;7.63;5.70;;;14.10;93.60;;;;;;5031034;28;20061;-70
2021/08/28 01:07:21;;;;;;;7.45;6.22;;;14.10;93.80;;;;;;5030655;28;20022;-71
2021/08/28 01:09:52;;;;;;;9.43;7.30;;;14.10;93.70;;;;;;5031428;28;20041;-70
2021/08/28 01:12:24;;;;;;;12.85;7.75;;;14.10;93.80;;;;;;5013052;28;20195;-70
2021/08/28 01:14:55;;;;;;;9.50;7.50;;;14.20;93.80;;;;;;5030301;28;20057;-70
2021/08/28 01:17:22;;;;;;;11.13;7.25;;;14.10;93.70;;;;;;5028161;28;20029;-70
2021/08/28 01:20:05;;;;;;;6.82;6.10;;;14.10;93.70;;;;;;5101656;22;20046;-68
2021/08/28 01:22:34;;;;;;;9.73;7.03;;;14.10;93.90;;;;;;5030651;28;20084;-69
2021/08/28 01:25:01;;;;;;;8.55;7.20;;;14.10;93.90;;;;;;5029697;28;20017;-68
2021/08/28 01:27:34;;;;;;;10.00;6.90;;;14.10;93.90;;;;;;5031387;28;20378;-68
2021/08/28 01:30:01;;;;;;;9.35;7.22;;;14.00;93.90;;;;;;5029931;28;20497;-68
2021/08/28 01:32:28;;;;;;;9.68;6.43;;;14.00;94.00;;;;;;5012930;28;20370;-68
2021/08/28 01:34:55;;;;;;;9.13;7.07;;;14.00;94.00;;;;;;5012272;28;20025;-68
2021/08/28 01:37:21;;;;;;;8.90;7.10;;;14.00;94.10;;;;;;5012863;28;20121;-68
2021/08/28 01:39:48;;;;;;;11.50;7.55;;;14.10;94.20;;;;;;5030612;28;20043;-69
2021/08/28 01:42:15;;;;;;;10.48;7.78;;;14.00;94.10;;;;;;5013452;28;20116;-69
2021/08/28 01:44:45;;;;;;;10.13;7.57;;;14.10;94.20;;;;;;5030202;28;20084;-68
2021/08/28 01:47:12;;;;;;;10.50;8.18;;;14.00;94.20;;;;;;5013214;28;20125;-68
2021/08/28 01:49:40;;;;;;;9.27;7.47;;;14.00;94.20;;;;;;5030510;28;20041;-68
2021/08/28 01:52:06;;;;;;;12.25;7.90;;;14.00;94.20;;;;;;5011855;28;20117;-68
2021/08/28 01:54:32;;;;;;;11.27;8.07;;;14.00;94.30;;;;;;5030625;28;20100;-68
2021/08/28 01:56:58;;;;;;;11.82;8.55;;;14.00;94.50;;;;;;5030421;28;20469;-68
2021/08/28 01:59:24;;;;;;;8.73;7.72;;;14.00;94.30;;;;;;5029515;28;20026;-68
2021/08/28 02:01:49;;;;;;;9.48;7.68;;;14.00;94.20;;;;;;5006111;28;20063;-68
2021/08/28 02:04:15;;;;;;;9.43;7.30;;;14.00;94.30;;;;;;5030178;28;20025;-69
2021/08/28 02:06:50;;;;;;;9.63;7.68;;;14.00;94.30;;;;;;5029463;28;20036;-69
2021/08/28 02:09:23;;;;;;;9.38;7.15;;;14.00;94.40;;;;;;5029522;28;20025;-68
2021/08/28 02:12:01;;;;;;;11.05;7.55;;;14.00;94.40;;;;;;5030520;28;20054;-68
2021/08/28 02:14:55;;;;;;;9.48;7.72;;;14.00;94.40;;;;;;5010690;28;20482;-68
2021/08/28 02:17:24;;;;;;;9.38;7.05;;;14.00;94.40;;;;;;5004242;28;20045;-68
2021/08/28 02:19:49;;;;;;;8.82;7.43;;;13.90;94.20;;;;;;5030419;28;20029;-68
2021/08/28 02:22:25;;;;;;;10.60;7.68;;;13.90;94.30;;;;;;5029592;28;20080;-68
2021/08/28 02:24:58;;;;;;;7.85;6.78;;;13.90;94.40;;;;;;5012198;28;20029;-68
2021/08/28 02:27:43;;;;;;;10.65;7.60;;;13.90;94.40;;;;;;5029586;28;20059;-68
2021/08/28 02:30:12;;;;;;;8.13;7.25;;;13.90;94.50;;;;;;5012556;28;20029;-68
2021/08/28 02:32:38;;;;;;;8.70;7.22;;;13.90;94.40;;;;;;5030102;28;20025;-68
2021/08/28 02:35:05;;;;;;;8.05;7.05;;;13.90;94.40;;;;;;5030249;28;20018;-68
2021/08/28 02:37:33;;;;;;;9.80;7.70;;;13.90;94.40;;;;;;5028871;28;20458;-68
2021/08/28 02:40:01;;;;;;;10.48;7.65;;;13.90;94.40;;;;;;5030218;28;20067;-68
2021/08/28 02:42:27;;;;;;;8.82;7.13;;;13.80;94.40;;;;;;5011867;28;20059;-68
2021/08/28 02:44:54;;;;;;;8.93;7.95;;;13.80;94.40;;;;;;5029280;28;20436;-68
2021/08/28 02:47:22;;;;;;;10.35;7.82;;;13.80;94.40;;;;;;5029818;28;20025;-69
2021/08/28 02:49:50;;;;;;;9.70;7.63;;;13.80;94.40;;;;;;5029555;28;20083;-68
2021/08/28 02:52:19;;;;;;;10.10;7.82;;;13.80;94.40;;;;;;5029653;28;20033;-69
2021/08/28 02:54:46;;;;;;;14.25;7.53;;;13.80;94.40;;;;;;5029547;28;20936;-69
2021/08/28 02:57:12;;;;;;;11.18;7.75;;;13.80;94.40;;;;;;5030252;28;20029;-68
2021/08/28 02:59:40;;;;;;;9.07;7.20;;;13.80;94.40;;;;;;5025477;28;20033;-68
2021/08/28 03:02:06;;;;;;;10.60;8.10;;;13.80;94.40;;;;;;5029137;28;20143;-69
2021/08/28 03:04:34;;;;;;;10.77;8.27;;;13.70;94.40;;;;;;5029768;28;20113;-68
2021/08/28 03:07:00;;;;;;;9.10;7.85;;;13.70;94.40;;;;;;5029202;28;20025;-69
2021/08/28 03:09:25;;;;;;;9.45;7.32;;;13.70;94.70;;;;;;5030187;28;20112;-68
2021/08/28 03:11:51;;;;;;;9.88;8.30;;;13.60;94.50;;;;;;5029395;28;20654;-68
2021/08/28 03:14:17;;;;;;;8.60;7.13;;;13.60;94.50;;;;;;5029972;28;20034;-68
2021/08/28 03:16:47;;;;;;;10.20;8.00;;;13.60;94.50;;;;;;5028655;28;20040;-68
2021/08/28 03:19:15;;;;;;;9.55;7.30;;;13.60;94.50;;;;;;5030062;28;20417;-69
2021/08/28 03:21:41;;;;;;;8.82;7.10;;;13.60;94.60;;;;;;5029070;28;20033;-69
2021/08/28 03:24:08;;;;;;;7.85;7.05;;;13.60;94.60;;;;;;5029766;28;20029;-68
2021/08/28 03:26:34;;;;;;;9.80;7.40;;;13.60;94.50;;;;;;5032614;28;20035;-68
2021/08/28 03:29:00;;;;;;;9.60;8.20;;;13.60;94.50;;;;;;5015586;28;20033;-68
2021/08/28 03:31:26;;;;;;;7.90;7.10;;;13.60;94.50;;;;;;5014868;28;20057;-68
2021/08/28 03:33:58;;;;;;;7.90;7.00;;;13.60;94.50;;;;;;5033008;28;20029;-68
2021/08/28 03:36:25;;;;;;;7.93;6.63;;;13.60;94.60;;;;;;5014521;28;20029;-68
2021/08/28 03:38:51;;;;;;;8.82;6.97;;;13.60;94.60;;;;;;5033246;28;20030;-68
2021/08/28 03:41:17;;;;;;;7.80;6.75;;;13.50;94.60;;;;;;5032405;28;20037;-68
2021/08/28 03:43:46;;;;;;;9.02;6.60;;;13.60;94.60;;;;;;5033053;28;20022;-68
2021/08/28 03:46:14;;;;;;;6.95;5.80;;;13.60;94.70;;;;;;5032142;28;20018;-69
2021/08/28 03:48:40;;;;;;;7.90;6.60;;;13.60;94.60;;;;;;5032803;28;20029;-69
2021/08/28 03:51:06;;;;;;;7.50;6.68;;;13.60;94.60;;;;;;5032028;28;20032;-68
2021/08/28 03:53:32;;;;;;;9.35;6.05;;;13.60;94.60;;;;;;5032707;28;20030;-68
2021/08/28 03:55:58;;;;;;;8.45;6.45;;;13.50;94.50;;;;;;5031745;28;20524;-68
2021/08/28 03:58:24;;;;;;;7.65;6.35;;;13.50;94.50;;;;;;5032731;28;20021;-68
2021/08/28 04:00:51;;;;;;;8.00;7.15;;;13.50;94.50;;;;;;5027954;28;20032;-68
2021/08/28 04:03:17;;;;;;;8.93;6.78;;;13.50;94.50;;;;;;5026943;28;20402;-68
2021/08/28 04:05:43;;;;;;;7.10;6.13;;;13.50;94.60;;;;;;5031672;28;20029;-68
2021/08/28 04:08:09;;;;;;;8.05;6.93;;;13.50;94.60;;;;;;5032567;28;20025;-68
2021/08/28 04:10:34;;;;;;;8.13;6.78;;;13.50;94.60;;;;;;5032366;28;20536;-68
2021/08/28 04:13:00;;;;;;;8.02;5.75;;;13.50;94.60;;;;;;5032104;28;20033;-68
2021/08/28 04:15:25;;;;;;;8.15;6.50;;;13.50;94.60;;;;;;5031704;28;20025;-69
2021/08/28 04:17:51;;;;;;;9.00;6.50;;;13.50;94.60;;;;;;5028398;28;20029;-68
2021/08/28 04:20:17;;;;;;;8.15;6.70;;;13.40;94.60;;;;;;5032421;28;20029;-69
2021/08/28 04:22:42;;;;;;;7.18;6.47;;;13.40;94.60;;;;;;5031974;28;20045;-68
2021/08/28 04:25:09;;;;;;;9.63;6.95;;;13.40;94.60;;;;;;5031550;28;20033;-68
2021/08/28 04:27:35;;;;;;;7.63;6.63;;;13.40;94.60;;;;;;5013044;28;20037;-68
2021/08/28 04:30:01;;;;;;;7.70;6.57;;;13.40;94.60;;;;;;5031484;28;20056;-68
2021/08/28 04:32:26;;;;;;;8.23;6.85;;;13.30;94.60;;;;;;5030382;28;20028;-69
2021/08/28 04:34:52;;;;;;;7.53;6.72;;;13.30;94.60;;;;;;5033181;28;20444;-68
2021/08/28 04:37:17;;;;;;;8.52;6.38;;;13.30;94.60;;;;;;5031695;28;20057;-68
2021/08/28 04:39:43;;;;;;;9.00;7.63;;;13.30;94.60;;;;;;5036459;28;20330;-68
2021/08/28 04:42:09;;;;;;;7.38;6.15;;;13.30;94.60;;;;;;5029069;28;20025;-68
2021/08/28 04:44:34;;;;;;;8.73;7.10;;;13.30;94.60;;;;;;5031181;28;20025;-69
2021/08/28 04:47:00;;;;;;;7.85;6.63;;;13.30;94.70;;;;;;5031500;28;20021;-68
2021/08/28 04:49:25;;;;;;;8.45;6.47;;;13.30;94.70;;;;;;5030941;28;20414;-68
2021/08/28 04:51:51;;;;;;;8.38;6.80;;;13.30;94.70;;;;;;5031052;28;20017;-68
2021/08/28 04:54:17;;;;;;;8.43;7.35;;;13.30;94.70;;;;;;5031425;28;20034;-69
2021/08/28 04:56:42;;;;;;;10.10;7.85;;;13.30;94.70;;;;;;5030880;28;20026;-69
2021/08/28 04:59:08;;;;;;;12.02;7.90;;;13.30;94.70;;;;;;5027886;28;20025;-68
2021/08/28 05:01:33;;;;;;;7.97;6.80;;;13.30;94.70;;;;;;5030386;28;20037;-69
2021/08/28 05:03:59;;;;;;;10.65;7.35;;;13.30;94.70;;;;;;5031016;28;20401;-68
2021/08/28 05:06:25;;;;;;;9.05;7.57;;;13.30;94.70;;;;;;5030050;28;20033;-69
2021/08/28 05:08:50;;;;;;;9.40;7.15;;;13.30;94.70;;;;;;5030438;28;20036;-68
2021/08/28 05:11:16;;;;;;;8.18;6.88;;;13.30;94.70;;;;;;5013416;28;20025;-68
2021/08/28 05:13:41;;;;;;;10.07;8.13;;;13.30;95.00;;;;;;5013320;28;20029;-68
2021/08/28 05:16:07;;;;;;;9.07;7.63;;;13.30;94.70;;;;;;5029856;28;20088;-68
2021/08/28 05:18:34;;;;;;;9.98;7.47;;;13.30;95.00;;;;;;5012781;28;20362;-68
2021/08/28 05:20:59;;;;;;;8.32;7.28;;;13.30;94.80;;;;;;5038142;28;20519;-68
2021/08/28 05:23:25;;;;;;;8.93;7.15;;;13.40;94.80;;;;;;5030919;28;20061;-68
2021/08/28 05:25:50;;;;;;;7.75;6.78;;;13.40;94.80;;;;;;5027845;28;20420;-69
2021/08/28 05:28:16;;;;;;;8.80;7.68;;;13.40;94.80;;;;;;5025900;28;20025;-69
2021/08/28 05:30:41;;;;;;;8.60;7.40;;;13.40;94.80;;;;;;5011678;28;20038;-68
2021/08/28 05:33:07;;;;;;;10.35;7.88;;;13.40;94.80;;;;;;5031229;28;20025;-68
2021/08/28 05:35:33;;;;;;;9.20;7.25;;;13.40;94.80;;;;;;5029718;28;20025;-68
2021/08/28 05:37:58;;;;;;;8.38;7.32;;;13.40;94.80;;;;;;5031358;28;20033;-69
2021/08/28 05:40:24;;;;;;;8.80;7.90;;;13.40;94.80;;;;;;5038072;28;20469;-69
2021/08/28 05:42:49;;;;;;;8.50;7.60;;;13.40;94.80;;;;;;5021181;28;20029;-68
2021/08/28 05:45:15;;;;;;;10.75;8.57;;;13.40;94.80;;;;;;5011096;28;20136;-68
2021/08/28 05:47:40;;;;;;;8.30;7.18;;;13.50;94.80;;;;;;5012168;28;20062;-68
2021/08/28 05:50:06;;;;;;;8.73;7.53;;;13.50;94.80;;;;;;5029640;28;20037;-68
2021/08/28 05:52:32;;;;;;;9.35;8.18;;;13.50;94.90;;;;;;5029766;28;20413;-68
2021/08/28 05:54:58;;;;;;;11.23;7.80;;;13.50;94.90;;;;;;5028996;28;20029;-68
2021/08/28 05:57:23;;;;;;;8.80;7.50;;;13.50;94.90;;;;;;5010674;28;20772;-68
2021/08/28 05:59:49;;;;;;;10.95;7.35;;;13.50;94.90;;;;;;5029034;28;20018;-69
2021/08/28 06:02:14;;;;;;;9.13;7.50;;;13.60;94.90;;;;;;5011986;28;20409;-69
2021/08/28 06:04:40;;;;;;;8.80;7.90;;;13.60;94.90;;;;;;5011833;28;20041;-68
2021/08/28 06:07:06;;;;;;;8.15;7.22;;;13.60;94.80;;;;;;5028528;28;20095;-68
2021/08/28 06:09:31;;;;;;;8.93;7.32;;;13.60;94.90;;;;;;5021449;28;20022;-68
2021/08/28 06:11:57;;;;;;;10.35;7.63;;;13.60;95.10;;;;;;5026942;28;20523;-68
2021/08/28 06:14:23;;;;;;;11.13;7.95;;;13.60;94.80;;;;;;5029645;28;20386;-68
2021/08/28 06:16:49;;;;;;;8.70;6.68;;;13.70;94.90;;;;;;5011269;28;20091;-68
2021/08/28 06:19:16;;;;;;;7.88;7.03;;;13.70;94.80;;;;;;5028836;28;20553;-68
2021/08/28 06:21:42;;;;;;;9.13;6.57;;;13.70;94.80;;;;;;5012054;28;20132;-68
2021/08/28 06:24:08;;;;;;;9.95;7.28;;;13.70;94.80;;;;;;5030072;28;20056;-68
2021/08/28 06:26:33;;;;;;;8.68;6.53;;;13.70;94.80;;;;;;5028475;28;20021;-68
2021/08/28 06:28:59;;;;;;;7.25;6.55;;;13.70;94.90;;;;;;5027638;28;20030;-68
2021/08/28 06:31:25;;;;;;;7.85;7.05;;;13.70;94.80;;;;;;5030127;28;20367;-68
2021/08/28 06:33:50;;;;;;;8.63;7.43;;;13.70;94.80;;;;;;5028930;28;20029;-68
2021/08/28 06:36:16;;;;;;;7.03;6.20;;;13.70;94.80;;;;;;5028438;28;20022;-69
2021/08/28 06:38:41;;;;;;;7.90;6.85;;;13.70;94.80;;;;;;5023856;28;20029;-69
2021/08/28 06:41:07;;;;;;;8.43;5.95;;;13.70;94.80;;;;;;5028149;28;20472;-68
2021/08/28 06:43:32;;;;;;;7.32;6.45;;;13.80;94.80;;;;;;5028583;28;20056;-68
2021/08/28 06:45:58;;;;;;;6.55;5.95;;;13.80;94.80;;;;;;5010990;28;20084;-68
2021/08/28 06:48:24;;;;;;;7.57;5.95;;;13.90;94.80;;;;;;5027999;28;20030;-68
2021/08/28 06:50:49;;;;;;;6.30;5.38;;;13.90;94.80;;;;;;5036333;28;20052;-71
2021/08/28 06:53:16;;;;;;;7.07;6.38;;;14.00;94.80;;;;;;5030824;28;20025;-67
2021/08/28 06:55:42;;;;;;;6.50;5.88;;;14.10;94.80;;;;;;5011215;28;20116;-68
2021/08/28 06:58:08;;;;;;;6.38;5.72;;;14.10;94.80;;;;;;5030257;28;20369;-70
2021/08/28 07:00:34;;;;;;;6.15;5.22;;;14.20;94.70;;;;;;5031745;28;20112;-68
2021/08/28 07:02:59;;;;;;;6.05;5.43;;;14.20;94.70;;;;;;5022667;28;20021;-68
2021/08/28 07:05:25;;;;;;;6.95;5.30;;;14.30;94.70;;;;;;5033607;28;20029;-67
2021/08/28 07:07:51;;;;;;;6.65;5.35;;;14.20;94.60;;;;;;5016383;28;20053;-70
2021/08/28 07:10:17;;;;;;;5.03;4.55;;;14.10;94.50;;;;;;5033398;28;20572;-67
2021/08/28 07:12:43;;;;;;;6.00;4.95;;;14.10;94.60;;;;;;5016177;28;20037;-67
2021/08/28 07:15:10;;;;;;;4.85;4.45;;;14.10;94.60;;;;;;5033077;28;20132;-67
2021/08/28 07:17:35;;;;;;;5.07;4.60;;;14.10;94.60;;;;;;5033890;28;20072;-67
2021/08/28 07:20:03;;;;;;;22.98;16.27;;;14.10;94.50;;;;;;5041010;22;20037;-71
2021/08/28 07:22:28;;;;;;;6.63;5.93;;;14.00;94.50;;;;;;5067448;28;20025;-75
2021/08/28 07:24:54;;;;;;;5.55;5.03;;;14.10;94.60;;;;;;5067036;28;20024;-72
2021/08/28 07:27:23;;;;;;;6.03;5.30;;;14.00;94.50;;;;;;5071074;28;20045;-67
2021/08/28 07:29:49;;;;;;;4.78;4.38;;;14.10;94.50;;;;;;5055657;28;20427;-67
2021/08/28 07:32:15;;;;;;;4.70;4.30;;;14.10;94.60;;;;;;5044213;28;20021;-66
2021/08/28 07:34:40;;;;;;;5.35;4.82;;;14.00;94.50;;;;;;5047714;28;20087;-66
2021/08/28 07:37:06;;;;;;;4.75;4.35;;;14.00;94.50;;;;;;5046467;28;20057;-66
2021/08/28 07:39:32;;;;;;;5.55;4.15;;;14.00;94.50;;;;;;5036569;28;20057;-66
2021/08/28 07:41:58;;;;;;;4.88;4.47;;;14.10;94.50;;;;;;5036349;28;20033;-67
2021/08/28 07:44:24;;;;;;;4.78;3.97;;;14.20;94.40;;;;;;5067491;28;20090;-66
2021/08/28 07:46:49;;;;;;;4.63;3.50;;;14.40;94.40;;;;;;5038273;28;20037;-66
2021/08/28 07:49:16;;;;;;;4.30;3.92;;;14.40;94.40;;;;;;5047685;28;20025;-66
2021/08/28 07:51:42;;;;;;;4.78;3.42;;;14.50;94.40;;;;;;5050021;28;20029;-66
2021/08/28 07:54:08;;;;;;;4.10;3.30;;;14.60;94.30;;;;;;5040810;28;20038;-66
2021/08/28 07:56:33;;;;;;;3.47;3.17;;;14.60;94.10;;;;;;5038243;28;20469;-65
2021/08/28 07:58:59;;;;;;;3.75;3.30;;;14.70;94.00;;;;;;5042063;28;20021;-66
2021/08/28 08:01:25;;;;;;;32.00;23.58;;;14.80;94.00;;;;;;5048089;28;20091;-66
2021/08/28 08:03:50;;;;;;;9.77;8.68;;;14.90;93.90;;;;;;5053025;28;20028;-67
2021/08/28 08:06:16;;;;;;;3.67;3.38;;;15.00;93.90;;;;;;5024884;28;20485;-68
2021/08/28 08:08:42;;;;;;;4.43;3.17;;;15.10;93.90;;;;;;5048268;28;20053;-66
2021/08/28 08:11:08;;;;;;;3.35;3.05;;;15.20;93.80;;;;;;5024290;28;20242;-67
2021/08/28 08:13:34;;;;;;;2.50;2.30;;;15.30;93.70;;;;;;5038269;28;20028;-67
2021/08/28 08:15:59;;;;;;;2.80;2.60;;;15.30;93.60;;;;;;5046144;28;20444;-67
2021/08/28 08:18:25;;;;;;;4.03;2.72;;;15.40;93.60;;;;;;5051830;28;20520;-67
2021/08/28 08:20:51;;;;;;;3.17;2.88;;;15.50;93.60;;;;;;5032853;28;20033;-68
2021/08/28 08:23:16;;;;;;;50.25;36.10;;;15.50;93.40;;;;;;5046044;28;20037;-67
2021/08/28 08:25:42;;;;;;;4.30;3.97;;;15.60;93.30;;;;;;5046964;28;20029;-68
2021/08/28 08:28:07;;;;;;;3.00;2.78;;;15.70;93.20;;;;;;5043936;28;20111;-68
2021/08/28 08:30:33;;;;;;;2.50;2.30;;;15.70;93.10;;;;;;5052155;28;20047;-68
2021/08/28 08:32:59;;;;;;;2.40;2.20;;;15.70;93.10;;;;;;5046678;28;20060;-67
2021/08/28 08:35:24;;;;;;;2.28;2.08;;;15.70;93.00;;;;;;5049067;28;20025;-66
2021/08/28 08:37:52;;;;;;;2.55;2.08;;;15.70;93.00;;;;;;5050033;28;20557;-67
2021/08/28 08:40:19;;;;;;;2.40;2.20;;;15.80;93.00;;;;;;5042585;28;20033;-67
2021/08/28 08:42:47;;;;;;;2.17;2.00;;;15.80;93.00;;;;;;5047663;28;20029;-67
2021/08/28 08:45:13;;;;;;;2.42;2.28;;;15.80;92.90;;;;;;5051363;28;20033;-67
2021/08/28 08:47:39;;;;;;;5.80;4.72;;;15.70;92.80;;;;;;5051901;28;20083;-67
2021/08/28 08:50:05;;;;;;;4.93;4.18;;;15.70;92.70;;;;;;5051526;28;20059;-67
2021/08/28 08:52:31;;;;;;;2.80;2.60;;;15.70;92.70;;;;;;5052272;28;20358;-67
2021/08/28 08:54:58;;;;;;;3.53;2.40;;;15.70;92.80;;;;;;5050799;28;20040;-67
2021/08/28 08:57:49;;;;;;;2.22;2.03;;;15.70;92.70;;;;;;5051600;28;20025;-67
2021/08/28 09:00:15;;;;;;;2.10;1.90;;;15.70;92.70;;;;;;5016303;28;20036;-67
2021/08/28 09:02:41;;;;;;;4.30;3.75;;;15.70;92.70;;;;;;5033953;28;20515;-67
2021/08/28 09:05:07;;;;;;;2.40;2.00;;;15.70;92.60;;;;;;5050549;28;20111;-67
2021/08/28 09:07:33;;;;;;;1.73;1.63;;;15.70;92.50;;;;;;5050450;28;20075;-67
2021/08/28 09:09:58;;;;;;;2.08;1.98;;;15.70;92.50;;;;;;5049703;28;20025;-67
2021/08/28 09:12:37;;;;;;;2.00;1.90;;;15.70;92.50;;;;;;5051474;28;20025;-67
2021/08/28 09:15:06;;;;;;;1.95;1.85;;;15.70;92.50;;;;;;5048362;28;20035;-67
2021/08/28 09:17:31;;;;;;;1.90;1.80;;;15.70;92.40;;;;;;5031189;28;20041;-67
2021/08/28 09:19:57;;;;;;;2.45;2.10;;;15.80;92.40;;;;;;5034456;28;20041;-67
2021/08/28 09:22:32;;;;;;;2.47;1.63;;;15.80;92.30;;;;;;5030483;28;20033;-67
2021/08/28 09:25:07;;;;;;;1.80;1.70;;;15.80;92.30;;;;;;5035683;28;20037;-67
2021/08/28 09:27:42;;;;;;;2.20;2.00;;;15.80;92.20;;;;;;5051152;28;20025;-67
2021/08/28 09:30:23;;;;;;;2.25;1.90;;;15.90;92.20;;;;;;5045313;28;20029;-67
2021/08/28 09:32:52;;;;;;;3.63;1.60;;;15.90;92.00;;;;;;5050397;28;20427;-67
2021/08/28 09:35:20;;;;;;;1.90;1.80;;;15.90;92.10;;;;;;5049577;28;20024;-67
2021/08/28 09:37:57;;;;;;;1.42;1.40;;;15.90;92.00;;;;;;5050707;28;20020;-67
2021/08/28 09:40:26;;;;;;;1.52;1.40;;;15.90;92.00;;;;;;5032680;28;20059;-67
2021/08/28 09:42:56;;;;;;;1.92;1.70;;;15.90;92.00;;;;;;5067113;28;20476;-67
2021/08/28 09:45:25;;;;;;;1.45;1.33;;;15.90;92.00;;;;;;5069845;28;20024;-67
2021/08/28 09:47:53;;;;;;;6.50;1.60;;;15.90;91.90;;;;;;5070737;28;20025;-67
2021/08/28 09:50:39;;;;;;;1.58;1.48;;;15.90;92.00;;;;;;5065179;28;20028;-67
2021/08/28 09:53:13;;;;;;;1.52;1.42;;;15.90;92.00;;;;;;5036915;28;20056;-67
2021/08/28 09:55:41;;;;;;;2.80;1.40;;;16.00;92.00;;;;;;5030099;28;20022;-67
2021/08/28 09:58:09;;;;;;;3.55;1.60;;;16.00;92.00;;;;;;5030122;28;20040;-67
2021/08/28 10:00:42;;;;;;;1.73;1.55;;;16.00;92.00;;;;;;5030858;28;20537;-67
2021/08/28 10:03:08;;;;;;;1.88;1.35;;;16.00;91.70;;;;;;5054865;28;20044;-67
2021/08/28 10:05:39;;;;;;;41.10;29.60;;;15.90;91.70;;;;;;5053442;28;20055;-67
2021/08/28 10:08:07;;;;;;;2.53;2.22;;;16.00;91.90;;;;;;5049219;28;20539;-67
2021/08/28 10:10:35;;;;;;;2.22;1.95;;;16.00;91.90;;;;;;5050239;28;20037;-67
2021/08/28 10:13:02;;;;;;;1.52;1.42;;;16.00;91.90;;;;;;5057621;28;20054;-67
2021/08/28 10:15:31;;;;;;;2.55;1.30;;;16.10;91.90;;;;;;5064965;28;20465;-67
2021/08/28 10:17:58;;;;;;;1.70;1.60;;;16.10;91.80;;;;;;5050458;28;20057;-67
2021/08/28 10:20:26;;;;;;;1.50;1.40;;;16.20;91.80;;;;;;5048776;28;20162;-67
2021/08/28 10:22:55;;;;;;;1.23;1.20;;;16.20;91.70;;;;;;5024260;28;20056;-67
2021/08/28 10:25:23;;;;;;;1.10;1.10;;;16.30;91.70;;;;;;5046087;28;20031;-67
2021/08/28 10:27:50;;;;;;;2.15;1.27;;;16.40;91.70;;;;;;5049259;28;20108;-67
2021/08/28 10:30:18;;;;;;;1.02;1.02;;;16.50;91.60;;;;;;5050218;28;20095;-67
2021/08/28 10:32:46;;;;;;;1.40;1.30;;;16.60;91.50;;;;;;5050359;28;20146;-67
2021/08/28 10:35:14;;;;;;;2.08;1.40;;;16.70;91.40;;;;;;5040454;28;20112;-67
2021/08/28 10:37:40;;;;;;;1.33;1.30;;;16.80;91.30;;;;;;5049203;28;20349;-67
2021/08/28 10:40:20;;;;;;;1.60;1.50;;;17.00;91.30;;;;;;5054399;28;20417;-67
2021/08/28 10:42:46;;;;;;;1.30;1.20;;;17.30;91.20;;;;;;5054424;28;20021;-67
2021/08/28 10:45:12;;;;;;;2.60;1.30;;;17.70;91.40;;;;;;5039055;28;20025;-68
2021/08/28 10:47:38;;;;;;;2.35;1.40;;;18.10;91.30;;;;;;5034197;28;20037;-67
2021/08/28 10:50:10;;;;;;;1.20;1.20;;;18.40;91.00;;;;;;5034079;28;20092;-67
2021/08/28 10:52:38;;;;;;;0.90;0.90;;;18.50;90.20;;;;;;5016082;28;20131;-67
2021/08/28 10:55:11;;;;;;;2.22;0.90;;;18.60;89.80;;;;;;5033356;28;20025;-67
2021/08/28 10:57:37;;;;;;;;;;;18.70;89.10;;;;;;5038577;28;20043;-67
2021/08/28 11:00:15;;;;;;;0.82;0.70;;;18.80;89.90;;;;;;5045662;28;20007;-67
2021/08/28 11:02:58;;;;;;;0.90;0.90;;;19.00;88.80;;;;;;5034143;28;20054;-67
2021/08/28 11:05:31;;;;;;;2.60;0.88;;;19.10;87.80;;;;;;5047057;28;20075;-67
2021/08/28 11:08:13;;;;;;;0.88;0.88;;;19.10;87.30;;;;;;5052199;28;20025;-67
2021/08/28 11:10:39;;;;;;;1.85;0.80;;;19.20;87.30;;;;;;5051256;28;20060;-67
2021/08/28 11:13:07;;;;;;;1.40;0.90;;;19.20;86.30;;;;;;5048796;28;20520;-67
2021/08/28 11:15:32;;;;;;;0.70;0.70;;;19.10;86.20;;;;;;5049830;28;20079;-67
2021/08/28 11:18:04;;;;;;;0.80;0.70;;;19.10;86.10;;;;;;5051858;28;20025;-67
2021/08/28 11:20:39;;;;;;;0.93;0.80;;;19.10;86.30;;;;;;5050377;28;20040;-68
2021/08/28 11:23:16;;;;;;;1.90;0.90;;;19.30;85.50;;;;;;5020060;28;20528;-67
2021/08/28 11:25:46;;;;;;;0.70;0.60;;;19.50;85.40;;;;;;5032884;28;20029;-67
2021/08/28 11:28:13;;;;;;;0.60;0.60;;;19.60;84.70;;;;;;5033791;28;20033;-67
2021/08/28 11:30:47;;;;;;;2.20;0.63;;;19.70;84.30;;;;;;5033443;28;20025;-67
2021/08/28 11:33:15;;;;;;;0.52;0.52;;;19.80;83.50;;;;;;5032109;28;20033;-67
2021/08/28 11:35:46;;;;;;;7.13;5.10;;;19.90;83.70;;;;;;5036345;28;20477;-67
2021/08/28 11:38:13;;;;;;;1.65;1.40;;;19.90;82.80;;;;;;5052993;28;20127;-67
2021/08/28 11:40:39;;;;;;;0.40;0.40;;;19.90;82.50;;;;;;5045081;28;20024;-67
2021/08/28 11:43:07;;;;;;;0.50;0.50;;;19.90;81.90;;;;;;5053327;28;20063;-67
2021/08/28 11:45:40;;;;;;;1.40;0.70;;;19.80;80.90;;;;;;5051432;28;20044;-68
2021/08/28 11:48:14;;;;;;;0.40;0.40;;;19.80;80.90;;;;;;5052707;28;20096;-68
2021/08/28 11:50:42;;;;;;;0.70;0.70;;;19.80;81.00;;;;;;5052942;28;20052;-67
2021/08/28 11:53:08;;;;;;;0.50;0.50;;;20.00;81.20;;;;;;5052212;28;20029;-67
2021/08/28 11:55:35;;;;;;;0.40;0.40;;;20.20;80.80;;;;;;5052501;28;20528;-68
2021/08/28 11:58:12;;;;;;;0.50;0.43;;;20.50;80.50;;;;;;5053414;28;20024;-67
2021/08/28 12:00:38;;;;;;;0.50;0.50;;;20.60;79.10;;;;;;5072881;28;20049;-68
2021/08/28 12:03:06;;;;;;;1.42;0.40;;;20.80;78.80;;;;;;5072916;28;20056;-67
2021/08/28 12:05:32;;;;;;;0.40;0.40;;;20.80;78.30;;;;;;5056818;28;20041;-68
2021/08/28 12:07:58;;;;;;;0.30;0.30;;;21.00;78.00;;;;;;5046777;28;20083;-68
2021/08/28 12:10:24;;;;;;;0.35;0.35;;;21.20;77.50;;;;;;5051447;28;20033;-68
2021/08/28 12:13:01;;;;;;;0.30;0.30;;;21.40;76.60;;;;;;5052637;28;20017;-68
2021/08/28 12:15:28;;;;;;;1.33;0.40;;;21.50;75.70;;;;;;5049763;28;20013;-68
2021/08/28 12:17:54;;;;;;;0.57;0.40;;;21.60;76.50;;;;;;5048196;28;20473;-67
2021/08/28 12:20:25;;;;;;;0.40;0.40;;;21.60;75.50;;;;;;5052135;28;20053;-68
2021/08/28 12:22:53;;;;;;;0.30;0.30;;;21.50;75.20;;;;;;5052085;28;20036;-68
2021/08/28 12:25:18;;;;;;;0.40;0.40;;;21.60;75.20;;;;;;5051769;28;20029;-68
2021/08/28 12:27:45;;;;;;;0.93;0.30;;;21.60;75.70;;;;;;5041721;28;20397;-68
2021/08/28 12:30:11;;;;;;;0.40;0.40;;;21.80;74.70;;;;;;5014483;28;20090;-68
2021/08/28 12:32:36;;;;;;;8.38;7.13;;;21.80;74.30;;;;;;5032424;28;20026;-67
2021/08/28 12:35:02;;;;;;;0.63;0.63;;;21.80;74.00;;;;;;5032697;28;20030;-68
2021/08/28 12:37:31;;;;;;;1.65;0.65;;;21.70;73.50;;;;;;5051713;28;20021;-67
2021/08/28 12:40:01;;;;;;;0.32;0.32;;;21.60;72.90;;;;;;5052274;28;20106;-67
2021/08/28 12:42:31;;;;;;;0.63;0.30;;;21.30;72.20;;;;;;5052288;28;20493;-67
2021/08/28 12:44:59;;;;;;;0.70;0.30;;;21.10;72.40;;;;;;5051280;28;20024;-67
2021/08/28 12:47:31;;;;;;;1.13;0.30;;;20.90;72.70;;;;;;5052005;28;20100;-67